createdAt,value
2018-11-01T00:00:54.810Z,26.8
2018-11-01T00:01:56.412Z,26.8
2018-11-01T00:02:58.569Z,26.8
2018-11-01T00:04:00.747Z,26.8
2018-11-01T00:05:02.618Z,26.8
2018-11-01T00:06:04.786Z,26.8
2018-11-01T00:07:07.227Z,26.8
2018-11-01T00:08:09.389Z,26.9
2018-11-01T00:09:11.812Z,26.9
2018-11-01T00:10:13.974Z,26.9
2018-11-01T00:11:16.134Z,26.9
2018-11-01T00:12:18.294Z,26.9
2018-11-01T00:13:20.211Z,26.9
2018-11-01T00:14:22.364Z,26.9
2018-11-01T00:15:23.966Z,27
2018-11-01T00:16:26.128Z,27
2018-11-01T00:17:28.281Z,27
2018-11-01T00:18:30.194Z,27
2018-11-01T00:19:32.360Z,27
2018-11-01T00:20:34.504Z,27
2018-11-01T00:21:36.928Z,27
2018-11-01T00:22:39.361Z,27
2018-11-01T00:23:41.246Z,27.1
2018-11-01T00:24:43.682Z,27.1
2018-11-01T00:25:45.840Z,27.1
2018-11-01T00:26:48.272Z,27.1
2018-11-01T00:27:49.586Z,27.1
2018-11-01T00:28:52.013Z,27.1
2018-11-01T00:29:54.440Z,27.1
2018-11-01T00:30:56.596Z,27.2
2018-11-01T00:31:59.028Z,27.2
2018-11-01T00:33:00.907Z,27.2
2018-11-01T00:34:03.048Z,27.2
2018-11-01T00:35:05.475Z,27.2
2018-11-01T00:36:07.639Z,27.2
2018-11-01T00:37:09.799Z,27.2
2018-11-01T00:38:11.926Z,27.3
2018-11-01T00:39:14.367Z,27.3
2018-11-01T00:40:16.263Z,27.3
2018-11-01T00:41:18.128Z,27.3
2018-11-01T00:42:20.267Z,27.3
2018-11-01T00:43:22.394Z,27.3
2018-11-01T00:44:24.821Z,27.3
2018-11-01T00:45:26.998Z,27.4
2018-11-01T00:46:28.871Z,27.4
2018-11-01T00:47:31.030Z,27.4
2018-11-01T00:48:33.450Z,27.4
2018-11-01T00:49:35.882Z,27.4
2018-11-01T00:50:38.038Z,27.4
2018-11-01T00:51:40.186Z,27.4
2018-11-01T00:52:42.621Z,27.4
2018-11-01T00:53:44.775Z,27.4
2018-11-01T00:54:47.197Z,27.4
2018-11-01T00:55:49.621Z,27.4
2018-11-01T00:56:51.784Z,27.5
2018-11-01T00:57:53.940Z,27.5
2018-11-01T00:58:56.090Z,27.5
2018-11-01T00:59:58.554Z,27.5
2018-11-01T01:01:00.711Z,27.5
2018-11-01T01:02:03.140Z,27.5
2018-11-01T01:03:05.575Z,27.5
2018-11-01T01:04:07.724Z,27.5
2018-11-01T01:05:09.588Z,27.5
2018-11-01T01:06:11.458Z,27.5
2018-11-01T01:07:13.064Z,27.5
2018-11-01T01:08:15.215Z,27.5
2018-11-01T01:09:17.640Z,27.5
2018-11-01T01:10:19.799Z,27.5
2018-11-01T01:11:21.677Z,27.5
2018-11-01T01:12:23.258Z,27.5
2018-11-01T01:13:25.392Z,27.5
2018-11-01T01:14:27.818Z,27.5
2018-11-01T01:15:29.707Z,27.5
2018-11-01T01:16:31.298Z,27.5
2018-11-01T01:17:33.441Z,27.5
2018-11-01T01:18:35.876Z,27.5
2018-11-01T01:19:37.739Z,27.5
2018-11-01T01:20:39.365Z,27.5
2018-11-01T01:21:41.788Z,27.6
2018-11-01T01:22:43.934Z,27.6
2018-11-01T01:23:46.096Z,27.6
2018-11-01T01:24:48.272Z,27.6
2018-11-01T01:25:50.165Z,27.6
2018-11-01T01:26:52.049Z,27.6
2018-11-01T01:27:54.201Z,27.6
2018-11-01T01:28:56.071Z,27.6
2018-11-01T01:29:57.934Z,27.6
2018-11-01T01:31:00.579Z,27.6
2018-11-01T01:32:02.471Z,27.6
2018-11-01T01:33:04.359Z,27.6
2018-11-01T01:34:06.783Z,27.6
2018-11-01T01:35:08.660Z,27.6
2018-11-01T01:36:10.536Z,27.6
2018-11-01T01:37:12.968Z,27.6
2018-11-01T01:38:15.119Z,27.6
2018-11-01T01:39:17.258Z,27.6
2018-11-01T01:40:19.690Z,27.6
2018-11-01T01:41:21.858Z,27.6
2018-11-01T01:42:23.755Z,27.6
2018-11-01T01:43:26.190Z,27.6
2018-11-01T01:44:28.617Z,27.6
2018-11-01T01:45:31.047Z,27.6
2018-11-01T01:46:32.921Z,27.6
2018-11-01T01:47:35.351Z,27.5
2018-11-01T01:48:37.797Z,27.5
2018-11-01T01:49:39.959Z,27.5
2018-11-01T01:50:42.719Z,27.5
2018-11-01T01:51:45.208Z,27.5
2018-11-01T01:52:47.626Z,27.4
2018-11-01T01:53:48.934Z,27.4
2018-11-01T01:54:50.912Z,27.4
2018-11-01T01:55:53.348Z,27.4
2018-11-01T01:56:55.242Z,27.3
2018-11-01T01:57:57.404Z,27.3
2018-11-01T01:58:59.841Z,27.3
2018-11-01T02:00:01.711Z,27.3
2018-11-01T02:01:03.897Z,27.3
2018-11-01T02:02:05.758Z,27.3
2018-11-01T02:03:07.626Z,27.2
2018-11-01T02:04:10.052Z,27.2
2018-11-01T02:05:12.481Z,27.2
2018-11-01T02:06:14.355Z,27.2
2018-11-01T02:07:16.514Z,27.2
2018-11-01T02:08:18.938Z,27.2
2018-11-01T02:09:21.378Z,27.2
2018-11-01T02:10:23.804Z,27.2
2018-11-01T02:11:25.404Z,27.1
2018-11-01T02:12:27.836Z,27.1
2018-11-01T02:13:29.986Z,27.1
2018-11-01T02:14:32.148Z,27.1
2018-11-01T02:15:34.299Z,27.1
2018-11-01T02:16:36.725Z,27.1
2018-11-01T02:17:38.358Z,27.1
2018-11-01T02:18:40.519Z,27.1
2018-11-01T02:19:42.951Z,27.1
2018-11-01T02:20:45.103Z,27.1
2018-11-01T02:21:46.988Z,27.1
2018-11-01T02:22:49.162Z,27.1
2018-11-01T02:23:51.590Z,27.1
2018-11-01T02:24:53.453Z,27.1
2018-11-01T02:25:55.877Z,27
2018-11-01T02:26:58.298Z,27
2018-11-01T02:28:00.187Z,27
2018-11-01T02:29:02.350Z,27
2018-11-01T02:30:04.775Z,27
2018-11-01T02:31:07.216Z,27
2018-11-01T02:32:09.367Z,27
2018-11-01T02:33:11.531Z,27
2018-11-01T02:34:13.405Z,27
2018-11-01T02:35:15.836Z,27
2018-11-01T02:36:17.990Z,27
2018-11-01T02:37:20.438Z,27
2018-11-01T02:38:23.116Z,27
2018-11-01T02:39:25.144Z,27
2018-11-01T02:40:27.309Z,27
2018-11-01T02:41:29.444Z,27
2018-11-01T02:42:31.074Z,27
2018-11-01T02:43:32.929Z,27
2018-11-01T02:44:35.349Z,27
2018-11-01T02:45:37.777Z,27
2018-11-01T02:46:39.665Z,27
2018-11-01T02:47:41.538Z,27
2018-11-01T02:48:43.969Z,27
2018-11-01T02:49:46.121Z,27
2018-11-01T02:50:47.991Z,27
2018-11-01T02:51:50.425Z,27
2018-11-01T02:52:52.327Z,27
2018-11-01T02:53:54.478Z,27
2018-11-01T02:54:56.907Z,27
2018-11-01T02:55:59.059Z,27
2018-11-01T02:57:01.488Z,27
2018-11-01T02:58:03.644Z,27
2018-11-01T02:59:06.068Z,27
2018-11-01T03:00:08.238Z,27
2018-11-01T03:01:10.668Z,27
2018-11-01T03:02:13.098Z,27
2018-11-01T03:03:15.254Z,27
2018-11-01T03:04:17.141Z,27
2018-11-01T03:05:20.183Z,27
2018-11-01T03:06:22.614Z,27
2018-11-01T03:07:25.249Z,27
2018-11-01T03:08:27.688Z,27
2018-11-01T03:09:29.589Z,27
2018-11-01T03:10:31.782Z,27
2018-11-01T03:11:33.683Z,27
2018-11-01T03:12:36.121Z,27
2018-11-01T03:13:38.235Z,27
2018-11-01T03:14:40.668Z,27
2018-11-01T03:15:42.817Z,27
2018-11-01T03:16:44.698Z,27
2018-11-01T03:17:46.579Z,27
2018-11-01T03:18:48.718Z,27
2018-11-01T03:19:51.152Z,27
2018-11-01T03:20:53.012Z,26.9
2018-11-01T03:21:55.459Z,26.9
2018-11-01T03:22:58.143Z,26.9
2018-11-01T03:24:00.277Z,26.9
2018-11-01T03:25:02.444Z,26.9
2018-11-01T03:26:04.607Z,26.9
2018-11-01T03:27:07.037Z,27
2018-11-01T03:28:09.186Z,26.9
2018-11-01T03:29:11.624Z,26.9
2018-11-01T03:30:13.501Z,26.9
2018-11-01T03:31:15.671Z,26.9
2018-11-01T03:32:17.822Z,26.9
2018-11-01T03:33:20.247Z,26.9
2018-11-01T03:34:22.407Z,26.9
2018-11-01T03:35:24.551Z,26.9
2018-11-01T03:36:26.976Z,26.9
2018-11-01T03:37:29.125Z,26.9
2018-11-01T03:38:32.108Z,26.9
2018-11-01T03:39:35.152Z,26.9
2018-11-01T03:40:37.271Z,26.9
2018-11-01T03:41:39.427Z,26.9
2018-11-01T03:42:41.850Z,26.9
2018-11-01T03:43:43.998Z,26.9
2018-11-01T03:44:46.145Z,26.9
2018-11-01T03:45:48.713Z,26.9
2018-11-01T03:46:51.244Z,26.9
2018-11-01T03:47:53.146Z,26.9
2018-11-01T03:48:54.998Z,26.9
2018-11-01T03:49:56.876Z,26.9
2018-11-01T03:50:58.726Z,26.9
2018-11-01T03:52:01.448Z,26.9
2018-11-01T03:53:04.288Z,26.9
2018-11-01T03:54:06.451Z,26.9
2018-11-01T03:55:08.604Z,26.9
2018-11-01T03:56:10.504Z,26.9
2018-11-01T03:57:12.657Z,26.9
2018-11-01T03:58:14.801Z,26.9
2018-11-01T03:59:17.230Z,26.9
2018-11-01T04:00:19.686Z,26.9
2018-11-01T04:01:21.576Z,26.9
2018-11-01T04:02:23.737Z,26.9
2018-11-01T04:03:25.628Z,26.9
2018-11-01T04:04:27.776Z,26.9
2018-11-01T04:05:29.928Z,26.9
2018-11-01T04:06:32.063Z,26.9
2018-11-01T04:07:33.665Z,26.9
2018-11-01T04:08:36.086Z,26.9
2018-11-01T04:09:37.961Z,26.9
2018-11-01T04:10:39.827Z,26.9
2018-11-01T04:11:42.259Z,26.9
2018-11-01T04:12:44.423Z,26.9
2018-11-01T04:13:47.305Z,26.9
2018-11-01T04:14:49.419Z,26.9
2018-11-01T04:15:51.042Z,26.9
2018-11-01T04:16:52.974Z,26.9
2018-11-01T04:17:54.812Z,26.9
2018-11-01T04:18:56.980Z,26.9
2018-11-01T04:19:58.876Z,26.9
2018-11-01T04:21:01.304Z,26.9
2018-11-01T04:22:03.167Z,26.9
2018-11-01T04:23:05.378Z,26.9
2018-11-01T04:24:07.542Z,26.9
2018-11-01T04:25:09.968Z,26.9
2018-11-01T04:26:12.399Z,26.9
2018-11-01T04:27:14.817Z,26.9
2018-11-01T04:28:16.965Z,26.9
2018-11-01T04:29:19.385Z,26.9
2018-11-01T04:30:21.830Z,26.9
2018-11-01T04:31:24.249Z,26.9
2018-11-01T04:32:26.104Z,26.9
2018-11-01T04:33:28.745Z,26.9
2018-11-01T04:34:31.491Z,26.9
2018-11-01T04:35:33.686Z,26.9
2018-11-01T04:36:35.826Z,26.9
2018-11-01T04:37:38.258Z,26.9
2018-11-01T04:38:39.869Z,26.9
2018-11-01T04:39:42.005Z,26.9
2018-11-01T04:40:44.247Z,26.9
2018-11-01T04:41:46.784Z,26.9
2018-11-01T04:42:48.929Z,26.9
2018-11-01T04:43:51.362Z,26.9
2018-11-01T04:44:53.813Z,26.9
2018-11-01T04:45:55.743Z,26.9
2018-11-01T04:46:57.907Z,26.9
2018-11-01T04:48:00.767Z,26.9
2018-11-01T04:49:03.256Z,26.9
2018-11-01T04:50:05.122Z,26.9
2018-11-01T04:51:07.554Z,26.9
2018-11-01T04:52:09.417Z,26.9
2018-11-01T04:53:11.287Z,26.9
2018-11-01T04:54:13.441Z,26.9
2018-11-01T04:55:15.607Z,26.9
2018-11-01T04:56:17.749Z,26.9
2018-11-01T04:57:19.917Z,26.9
2018-11-01T04:58:22.084Z,26.9
2018-11-01T04:59:23.936Z,26.9
2018-11-01T05:00:25.556Z,26.9
2018-11-01T05:01:27.689Z,26.9
2018-11-01T05:02:29.847Z,26.9
2018-11-01T05:03:32.470Z,26.9
2018-11-01T05:04:34.273Z,26.9
2018-11-01T05:05:36.427Z,26.9
2018-11-01T05:06:38.382Z,26.9
2018-11-01T05:07:40.369Z,26.9
2018-11-01T05:08:42.238Z,26.9
2018-11-01T05:09:44.110Z,26.9
2018-11-01T05:10:45.431Z,26.9
2018-11-01T05:11:47.571Z,26.9
2018-11-01T05:12:50.013Z,26.9
2018-11-01T05:13:52.208Z,26.9
2018-11-01T05:14:54.359Z,26.9
2018-11-01T05:15:56.241Z,26.9
2018-11-01T05:16:58.679Z,26.9
2018-11-01T05:18:00.817Z,26.9
2018-11-01T05:19:03.246Z,26.9
2018-11-01T05:20:04.589Z,26.9
2018-11-01T05:21:07.092Z,26.9
2018-11-01T05:22:09.234Z,26.9
2018-11-01T05:23:11.388Z,26.9
2018-11-01T05:24:13.556Z,26.9
2018-11-01T05:25:15.993Z,26.9
2018-11-01T05:26:18.130Z,26.9
2018-11-01T05:27:20.281Z,26.9
2018-11-01T05:28:22.699Z,26.9
2018-11-01T05:29:24.931Z,26.9
2018-11-01T05:30:26.800Z,26.9
2018-11-01T05:31:28.927Z,26.9
2018-11-01T05:32:31.364Z,26.9
2018-11-01T05:33:33.789Z,26.9
2018-11-01T05:34:35.734Z,26.9
2018-11-01T05:35:38.275Z,26.9
2018-11-01T05:36:40.429Z,26.9
2018-11-01T05:37:42.870Z,26.9
2018-11-01T05:38:44.235Z,26.9
2018-11-01T05:39:46.110Z,26.9
2018-11-01T05:40:48.542Z,26.9
2018-11-01T05:41:50.767Z,26.9
2018-11-01T05:42:52.633Z,26.9
2018-11-01T05:43:54.786Z,26.9
2018-11-01T05:44:56.975Z,26.9
2018-11-01T05:45:59.388Z,26.9
2018-11-01T05:47:01.024Z,26.9
2018-11-01T05:48:03.203Z,26.9
2018-11-01T05:49:05.379Z,26.9
2018-11-01T05:50:07.808Z,26.9
2018-11-01T05:51:09.968Z,26.9
2018-11-01T05:52:12.395Z,26.9
2018-11-01T05:53:14.549Z,26.9
2018-11-01T05:54:16.749Z,26.9
2018-11-01T05:55:19.179Z,26.9
2018-11-01T05:56:21.617Z,26.9
2018-11-01T05:57:24.045Z,26.9
2018-11-01T05:58:26.184Z,26.9
2018-11-01T05:59:28.351Z,26.9
2018-11-01T06:00:30.508Z,26.9
2018-11-01T06:01:32.938Z,26.9
2018-11-01T06:02:34.535Z,26.9
2018-11-01T06:03:36.682Z,26.9
2018-11-01T06:04:38.309Z,26.9
2018-11-01T06:05:40.399Z,26.9
2018-11-01T06:06:42.874Z,26.9
2018-11-01T06:07:45.299Z,26.9
2018-11-01T06:08:47.466Z,26.9
2018-11-01T06:09:49.926Z,26.9
2018-11-01T06:10:52.354Z,26.9
2018-11-01T06:11:54.786Z,26.9
2018-11-01T06:12:56.958Z,26.9
2018-11-01T06:13:58.827Z,26.9
2018-11-01T06:15:01.249Z,26.9
2018-11-01T06:16:03.678Z,26.9
2018-11-01T06:17:06.098Z,26.9
2018-11-01T06:18:07.971Z,26.9
2018-11-01T06:19:10.404Z,26.9
2018-11-01T06:20:12.838Z,26.9
2018-11-01T06:21:15.266Z,26.9
2018-11-01T06:22:16.858Z,26.9
2018-11-01T06:23:18.195Z,26.9
2018-11-01T06:24:20.375Z,26.9
2018-11-01T06:25:22.531Z,26.9
2018-11-01T06:26:24.968Z,26.9
2018-11-01T06:27:26.842Z,26.9
2018-11-01T06:28:28.998Z,26.9
2018-11-01T06:29:31.136Z,26.9
2018-11-01T06:30:33.550Z,26.9
2018-11-01T06:31:35.776Z,26.9
2018-11-01T06:32:37.922Z,26.9
2018-11-01T06:33:40.346Z,26.9
2018-11-01T06:34:42.208Z,26.9
2018-11-01T06:35:44.657Z,26.9
2018-11-01T06:36:47.087Z,26.9
2018-11-01T06:37:49.592Z,26.9
2018-11-01T06:38:51.829Z,26.9
2018-11-01T06:39:54.268Z,26.9
2018-11-01T06:40:56.419Z,26.9
2018-11-01T06:41:58.308Z,26.9
2018-11-01T06:43:00.478Z,26.9
2018-11-01T06:44:02.924Z,26.9
2018-11-01T06:45:05.364Z,26.9
2018-11-01T06:46:07.652Z,26.9
2018-11-01T06:47:09.534Z,26.9
2018-11-01T06:48:11.699Z,26.9
2018-11-01T06:49:13.870Z,26.9
2018-11-01T06:50:16.038Z,26.9
2018-11-01T06:51:17.931Z,26.9
2018-11-01T06:52:20.208Z,26.9
2018-11-01T06:53:22.394Z,26.9
2018-11-01T06:54:24.547Z,26.9
2018-11-01T06:55:26.719Z,26.9
2018-11-01T06:56:29.147Z,26.9
2018-11-01T06:57:31.046Z,26.9
2018-11-01T06:58:33.384Z,26.9
2018-11-01T06:59:36.970Z,26.9
2018-11-01T07:00:39.338Z,26.9
2018-11-01T07:01:41.210Z,26.9
2018-11-01T07:02:43.337Z,26.9
2018-11-01T07:03:45.771Z,26.9
2018-11-01T07:04:48.203Z,26.9
2018-11-01T07:05:51.200Z,26.9
2018-11-01T07:06:53.638Z,26.9
2018-11-01T07:07:56.108Z,26.9
2018-11-01T07:08:58.278Z,26.9
2018-11-01T07:10:00.706Z,26.9
2018-11-01T07:11:03.138Z,26.9
2018-11-01T07:12:05.567Z,26.9
2018-11-01T07:13:07.719Z,26.9
2018-11-01T07:14:09.642Z,26.9
2018-11-01T07:15:11.798Z,26.9
2018-11-01T07:16:13.969Z,26.9
2018-11-01T07:17:16.782Z,26.9
2018-11-01T07:18:19.988Z,26.9
2018-11-01T07:19:22.152Z,26.9
2018-11-01T07:20:24.016Z,26.9
2018-11-01T07:21:25.873Z,26.9
2018-11-01T07:22:28.305Z,26.9
2018-11-01T07:23:30.461Z,26.9
2018-11-01T07:24:32.888Z,26.9
2018-11-01T07:25:35.527Z,26.9
2018-11-01T07:26:38.836Z,26.9
2018-11-01T07:27:40.728Z,26.9
2018-11-01T07:28:43.166Z,26.9
2018-11-01T07:29:45.074Z,26.9
2018-11-01T07:30:47.498Z,26.9
2018-11-01T07:31:49.936Z,26.9
2018-11-01T07:32:52.486Z,26.9
2018-11-01T07:33:55.018Z,26.9
2018-11-01T07:34:57.192Z,26.9
2018-11-01T07:35:59.363Z,26.8
2018-11-01T07:37:01.498Z,26.9
2018-11-01T07:38:03.935Z,26.9
2018-11-01T07:39:05.510Z,26.9
2018-11-01T07:40:08.343Z,26.9
2018-11-01T07:41:10.622Z,26.9
2018-11-01T07:42:12.777Z,26.9
2018-11-01T07:43:14.643Z,26.9
2018-11-01T07:44:16.518Z,26.9
2018-11-01T07:45:18.446Z,26.9
2018-11-01T07:46:20.873Z,26.9
2018-11-01T07:47:23.030Z,26.9
2018-11-01T07:48:25.257Z,26.9
2018-11-01T07:49:27.177Z,26.9
2018-11-01T07:50:29.325Z,26.9
2018-11-01T07:51:30.949Z,26.9
2018-11-01T07:52:32.872Z,26.8
2018-11-01T07:53:35.335Z,26.8
2018-11-01T07:54:37.829Z,26.9
2018-11-01T07:55:39.732Z,26.8
2018-11-01T07:56:42.179Z,26.8
2018-11-01T07:57:44.346Z,26.8
2018-11-01T07:58:46.512Z,26.8
2018-11-01T07:59:48.397Z,26.8
2018-11-01T08:00:50.843Z,26.8
2018-11-01T08:01:53.278Z,26.8
2018-11-01T08:02:55.440Z,26.8
2018-11-01T08:03:57.320Z,26.9
2018-11-01T08:04:59.471Z,26.8
2018-11-01T08:06:02.152Z,26.8
2018-11-01T08:07:05.243Z,26.9
2018-11-01T08:08:07.379Z,26.9
2018-11-01T08:09:09.815Z,26.8
2018-11-01T08:10:11.978Z,26.8
2018-11-01T08:11:14.409Z,26.9
2018-11-01T08:12:16.839Z,26.9
2018-11-01T08:13:19.038Z,26.9
2018-11-01T08:14:20.912Z,26.8
2018-11-01T08:15:22.518Z,26.8
2018-11-01T08:16:24.947Z,26.8
2018-11-01T08:17:27.314Z,26.8
2018-11-01T08:18:30.184Z,26.8
2018-11-01T08:19:32.312Z,26.8
2018-11-01T08:20:34.608Z,26.8
2018-11-01T08:21:37.449Z,26.8
2018-11-01T08:22:39.334Z,26.8
2018-11-01T08:23:41.774Z,26.8
2018-11-01T08:24:43.948Z,26.8
2018-11-01T08:25:46.374Z,26.8
2018-11-01T08:26:48.805Z,26.8
2018-11-01T08:27:51.370Z,26.8
2018-11-01T08:28:53.734Z,26.8
2018-11-01T08:29:55.892Z,26.8
2018-11-01T08:30:58.741Z,26.8
2018-11-01T08:32:01.746Z,26.8
2018-11-01T08:33:03.898Z,26.8
2018-11-01T08:34:06.067Z,26.8
2018-11-01T08:35:08.247Z,26.8
2018-11-01T08:36:10.684Z,26.8
2018-11-01T08:37:13.119Z,26.8
2018-11-01T08:38:15.277Z,26.8
2018-11-01T08:39:17.311Z,26.8
2018-11-01T08:40:19.207Z,26.8
2018-11-01T08:41:20.811Z,26.8
2018-11-01T08:42:23.253Z,26.8
2018-11-01T08:43:25.400Z,26.8
2018-11-01T08:44:28.025Z,26.8
2018-11-01T08:45:30.245Z,26.8
2018-11-01T08:46:32.703Z,26.8
2018-11-01T08:47:35.285Z,26.8
2018-11-01T08:48:37.001Z,26.8
2018-11-01T08:49:39.443Z,26.8
2018-11-01T08:50:41.605Z,26.8
2018-11-01T08:51:44.042Z,26.8
2018-11-01T08:52:45.906Z,26.8
2018-11-01T08:53:48.072Z,26.8
2018-11-01T08:54:50.232Z,26.8
2018-11-01T08:55:52.563Z,26.8
2018-11-01T08:56:54.460Z,26.8
2018-11-01T08:57:56.893Z,26.8
2018-11-01T08:58:59.050Z,26.8
2018-11-01T09:00:00.953Z,26.8
2018-11-01T09:01:03.395Z,26.8
2018-11-01T09:02:05.567Z,26.8
2018-11-01T09:03:07.860Z,26.8
2018-11-01T09:04:10.395Z,26.8
2018-11-01T09:05:12.609Z,26.8
2018-11-01T09:06:14.499Z,26.8
2018-11-01T09:07:17.383Z,26.8
2018-11-01T09:08:19.857Z,26.8
2018-11-01T09:09:21.724Z,26.8
2018-11-01T09:10:23.771Z,26.8
2018-11-01T09:11:26.160Z,26.8
2018-11-01T09:12:28.401Z,26.8
2018-11-01T09:13:29.994Z,26.8
2018-11-01T09:14:32.515Z,26.8
2018-11-01T09:15:35.310Z,26.8
2018-11-01T09:16:37.734Z,26.8
2018-11-01T09:17:40.249Z,26.8
2018-11-01T09:18:42.526Z,26.8
2018-11-01T09:19:44.958Z,26.8
2018-11-01T09:20:47.387Z,26.8
2018-11-01T09:21:49.578Z,26.8
2018-11-01T09:22:52.033Z,26.8
2018-11-01T09:23:53.911Z,26.8
2018-11-01T09:24:55.528Z,26.8
2018-11-01T09:25:57.665Z,26.8
2018-11-01T09:27:00.477Z,26.8
2018-11-01T09:28:02.439Z,26.8
2018-11-01T09:29:04.050Z,26.8
2018-11-01T09:30:06.205Z,26.8
2018-11-01T09:31:08.633Z,26.8
2018-11-01T09:32:10.803Z,26.8
2018-11-01T09:33:12.971Z,26.9
2018-11-01T09:34:14.863Z,26.9
2018-11-01T09:35:17.299Z,26.9
2018-11-01T09:36:19.734Z,26.9
2018-11-01T09:37:22.173Z,26.9
2018-11-01T09:38:24.642Z,26.9
2018-11-01T09:39:27.090Z,26.9
2018-11-01T09:40:29.398Z,26.9
2018-11-01T09:41:31.866Z,26.9
2018-11-01T09:42:34.038Z,26.9
2018-11-01T09:43:36.408Z,26.9
2018-11-01T09:44:38.564Z,26.9
2018-11-01T09:45:40.164Z,26.9
2018-11-01T09:46:43.102Z,26.9
2018-11-01T09:47:47.944Z,26.9
2018-11-01T09:48:50.584Z,26.9
2018-11-01T09:49:52.194Z,26.9
2018-11-01T09:50:54.615Z,26.9
2018-11-01T09:51:57.047Z,26.9
2018-11-01T09:52:59.210Z,26.9
2018-11-01T09:54:01.098Z,26.9
2018-11-01T09:55:03.234Z,26.9
2018-11-01T09:56:06.202Z,26.9
2018-11-01T09:57:08.772Z,26.9
2018-11-01T09:58:10.660Z,26.9
2018-11-01T09:59:13.092Z,26.9
2018-11-01T10:00:15.251Z,26.9
2018-11-01T10:01:17.516Z,26.9
2018-11-01T10:02:20.254Z,26.9
2018-11-01T10:03:22.432Z,26.9
2018-11-01T10:04:24.325Z,26.9
2018-11-01T10:05:26.557Z,26.9
2018-11-01T10:06:28.605Z,26.9
2018-11-01T10:07:30.244Z,26.9
2018-11-01T10:08:32.397Z,26.9
2018-11-01T10:09:34.279Z,26.8
2018-11-01T10:10:36.713Z,26.8
2018-11-01T10:11:39.150Z,26.8
2018-11-01T10:12:41.048Z,26.8
2018-11-01T10:13:43.479Z,26.8
2018-11-01T10:14:45.115Z,26.8
2018-11-01T10:15:48.816Z,26.8
2018-11-01T10:16:52.423Z,26.8
2018-11-01T10:17:56.822Z,26.8
2018-11-01T10:18:58.857Z,26.8
2018-11-01T10:20:00.443Z,26.8
2018-11-01T10:21:02.886Z,26.8
2018-11-01T10:22:05.323Z,26.8
2018-11-01T10:23:08.343Z,26.8
2018-11-01T10:24:11.141Z,26.8
2018-11-01T10:25:13.352Z,26.8
2018-11-01T10:26:15.166Z,26.8
2018-11-01T10:28:22.595Z,26.8
2018-11-01T10:29:25.024Z,26.8
2018-11-01T10:30:26.902Z,26.8
2018-11-01T10:31:29.063Z,26.8
2018-11-01T10:32:30.959Z,26.8
2018-11-01T10:33:32.840Z,26.8
2018-11-01T10:34:35.288Z,26.8
2018-11-01T10:35:37.425Z,26.8
2018-11-01T10:36:39.589Z,26.8
2018-11-01T10:37:41.727Z,26.8
2018-11-01T10:38:44.185Z,26.8
2018-11-01T10:39:46.373Z,26.8
2018-11-01T10:40:48.002Z,26.8
2018-11-01T10:41:50.443Z,26.8
2018-11-01T10:42:52.582Z,26.8
2018-11-01T10:43:54.750Z,26.8
2018-11-01T10:44:56.914Z,26.8
2018-11-01T10:45:58.828Z,26.8
2018-11-01T10:47:01.013Z,26.8
2018-11-01T10:48:03.448Z,26.8
2018-11-01T10:49:05.905Z,26.8
2018-11-01T10:50:07.240Z,26.8
2018-11-01T10:51:09.415Z,26.8
2018-11-01T10:52:11.567Z,26.8
2018-11-01T10:53:13.719Z,26.8
2018-11-01T10:54:16.192Z,26.8
2018-11-01T10:55:18.527Z,26.8
2018-11-01T10:56:20.666Z,26.8
2018-11-01T10:57:23.112Z,26.8
2018-11-01T10:58:25.547Z,26.8
2018-11-01T10:59:27.707Z,26.8
2018-11-01T11:00:30.477Z,26.8
2018-11-01T11:01:33.066Z,26.8
2018-11-01T11:02:35.495Z,26.8
2018-11-01T11:03:37.657Z,26.8
2018-11-01T11:04:40.096Z,26.8
2018-11-01T11:05:42.272Z,26.8
2018-11-01T11:06:45.031Z,26.8
2018-11-01T11:07:47.313Z,26.8
2018-11-01T11:08:49.755Z,26.8
2018-11-01T11:09:51.634Z,26.8
2018-11-01T11:10:53.791Z,26.8
2018-11-01T11:11:56.235Z,26.8
2018-11-01T11:12:58.118Z,26.8
2018-11-01T11:14:00.323Z,26.8
2018-11-01T11:15:02.222Z,26.8
2018-11-01T11:16:04.389Z,26.8
2018-11-01T11:17:06.537Z,26.8
2018-11-01T11:18:08.440Z,26.8
2018-11-01T11:19:10.885Z,26.8
2018-11-01T11:20:13.731Z,26.8
2018-11-01T11:21:17.890Z,26.8
2018-11-01T11:22:20.809Z,26.8
2018-11-01T11:23:22.446Z,26.8
2018-11-01T11:24:24.902Z,26.8
2018-11-01T11:25:26.536Z,26.8
2018-11-01T11:26:28.693Z,26.8
2018-11-01T11:27:30.879Z,26.8
2018-11-01T11:28:33.370Z,26.8
2018-11-01T11:29:35.535Z,26.8
2018-11-01T11:30:37.633Z,26.8
2018-11-01T11:31:39.666Z,26.8
2018-11-01T11:32:41.825Z,26.8
2018-11-01T11:33:44.275Z,26.8
2018-11-01T11:34:46.739Z,26.8
2018-11-01T11:35:48.823Z,26.8
2018-11-01T11:36:51.234Z,26.8
2018-11-01T11:37:53.365Z,26.8
2018-11-01T11:38:55.595Z,26.8
2018-11-01T11:39:57.548Z,26.8
2018-11-01T11:40:59.427Z,26.8
2018-11-01T11:42:01.347Z,26.8
2018-11-01T11:43:03.784Z,26.8
2018-11-01T11:44:05.952Z,26.8
2018-11-01T11:45:08.159Z,26.8
2018-11-01T11:46:10.040Z,26.8
2018-11-01T11:47:11.616Z,26.7
2018-11-01T11:48:14.042Z,26.8
2018-11-01T11:49:16.471Z,26.7
2018-11-01T11:50:18.605Z,26.7
2018-11-01T11:51:20.574Z,26.8
2018-11-01T11:52:22.418Z,26.8
2018-11-01T11:53:24.583Z,26.8
2018-11-01T11:54:26.731Z,26.8
2018-11-01T11:55:28.882Z,26.8
2018-11-01T11:56:31.026Z,26.7
2018-11-01T11:57:33.447Z,26.7
2018-11-01T11:58:35.410Z,26.8
2018-11-01T11:59:37.598Z,26.7
2018-11-01T12:00:39.764Z,26.7
2018-11-01T12:01:41.647Z,26.7
2018-11-01T12:02:43.778Z,26.7
2018-11-01T12:03:45.940Z,26.7
2018-11-01T12:04:48.085Z,26.7
2018-11-01T12:05:50.779Z,26.7
2018-11-01T12:06:53.078Z,26.7
2018-11-01T12:07:55.247Z,26.7
2018-11-01T12:08:57.392Z,26.7
2018-11-01T12:09:59.538Z,26.7
2018-11-01T12:11:01.686Z,26.7
2018-11-01T12:12:03.851Z,26.7
2018-11-01T12:13:06.012Z,26.7
2018-11-01T12:14:08.411Z,26.7
2018-11-01T12:15:11.106Z,26.7
2018-11-01T12:16:13.273Z,26.7
2018-11-01T12:17:15.708Z,26.7
2018-11-01T12:18:17.833Z,26.7
2018-11-01T12:19:19.431Z,26.7
2018-11-01T12:20:21.588Z,26.7
2018-11-01T12:21:23.744Z,26.7
2018-11-01T12:22:26.329Z,26.7
2018-11-01T12:23:28.002Z,26.7
2018-11-01T12:24:30.170Z,26.7
2018-11-01T12:25:32.045Z,26.7
2018-11-01T12:26:33.650Z,26.7
2018-11-01T12:27:35.245Z,26.7
2018-11-01T12:28:37.903Z,26.7
2018-11-01T12:29:40.177Z,26.7
2018-11-01T12:30:42.087Z,26.7
2018-11-01T12:31:43.674Z,26.7
2018-11-01T12:32:45.831Z,26.7
2018-11-01T12:33:48.278Z,26.7
2018-11-01T12:34:49.887Z,26.7
2018-11-01T12:35:51.258Z,26.7
2018-11-01T12:36:53.716Z,26.7
2018-11-01T12:37:55.881Z,26.7
2018-11-01T12:38:57.744Z,26.7
2018-11-01T12:39:59.908Z,26.7
2018-11-01T12:41:02.074Z,26.7
2018-11-01T12:42:03.985Z,26.7
2018-11-01T12:43:06.137Z,26.7
2018-11-01T12:44:08.298Z,26.7
2018-11-01T12:45:10.177Z,26.7
2018-11-01T12:46:12.058Z,26.7
2018-11-01T12:47:14.241Z,26.7
2018-11-01T12:48:16.689Z,26.7
2018-11-01T12:49:18.318Z,26.8
2018-11-01T12:50:20.263Z,26.7
2018-11-01T12:51:22.606Z,26.7
2018-11-01T12:52:24.470Z,26.7
2018-11-01T12:53:26.632Z,26.7
2018-11-01T12:54:28.530Z,26.7
2018-11-01T12:55:30.148Z,26.7
2018-11-01T12:56:31.862Z,26.7
2018-11-01T12:57:33.956Z,26.7
2018-11-01T12:58:36.392Z,26.7
2018-11-01T12:59:38.575Z,26.7
2018-11-01T13:00:40.613Z,26.7
2018-11-01T13:01:42.544Z,26.7
2018-11-01T13:02:44.753Z,26.7
2018-11-01T13:03:46.755Z,26.7
2018-11-01T13:04:48.928Z,26.7
2018-11-01T13:05:51.090Z,26.7
2018-11-01T13:06:52.963Z,26.7
2018-11-01T13:07:55.395Z,26.7
2018-11-01T13:08:57.840Z,26.8
2018-11-01T13:09:59.980Z,26.7
2018-11-01T13:11:02.122Z,26.7
2018-11-01T13:12:04.583Z,26.7
2018-11-01T13:13:07.227Z,26.7
2018-11-01T13:14:09.401Z,26.7
2018-11-01T13:15:10.988Z,26.7
2018-11-01T13:16:13.180Z,26.7
2018-11-01T13:17:14.756Z,26.7
2018-11-01T13:18:16.663Z,26.8
2018-11-01T13:19:18.804Z,26.7
2018-11-01T13:20:20.974Z,26.8
2018-11-01T13:21:23.414Z,26.8
2018-11-01T13:22:25.578Z,26.7
2018-11-01T13:23:28.004Z,26.7
2018-11-01T13:24:30.150Z,26.8
2018-11-01T13:25:32.045Z,26.8
2018-11-01T13:26:34.188Z,26.7
2018-11-01T13:27:36.331Z,26.7
2018-11-01T13:28:38.484Z,26.7
2018-11-01T13:29:40.352Z,26.8
2018-11-01T13:30:42.259Z,26.7
2018-11-01T13:31:44.692Z,26.7
2018-11-01T13:32:46.853Z,26.7
2018-11-01T13:33:49.009Z,26.7
2018-11-01T13:34:51.863Z,26.7
2018-11-01T13:35:54.767Z,26.7
2018-11-01T13:36:56.937Z,26.7
2018-11-01T13:37:59.103Z,26.7
2018-11-01T13:39:01.256Z,26.7
2018-11-01T13:40:03.784Z,26.7
2018-11-01T13:41:07.008Z,26.7
2018-11-01T13:42:10.216Z,26.7
2018-11-01T13:43:11.805Z,26.7
2018-11-01T13:44:13.675Z,26.7
2018-11-01T13:45:16.105Z,26.7
2018-11-01T13:46:18.353Z,26.7
2018-11-01T13:47:20.510Z,26.7
2018-11-01T13:48:23.270Z,26.7
2018-11-01T13:49:25.333Z,26.7
2018-11-01T13:50:27.235Z,26.7
2018-11-01T13:51:29.410Z,26.7
2018-11-01T13:52:31.589Z,26.7
2018-11-01T13:53:33.752Z,26.7